Hlavní strana
METAR-TAF:

METAR-TAF

Letiště :

Rugby, Severní Dakota, Spojené státy americké

zeměpisná šířka: 48-23-25N, zeměpisná délka: 100-01-27W, výška: 472 m

Aktuální stav počasí

Zpráva byla vytvořena před 12 minutami, v 06:55 UTC
Severoseverovýchodní vítr 3 kt
Teplota 10°C
Vlhkost vzduchu 87%
Tlak 1022 hPa
Viditelnost: 16.1 km
Jasno

METAR: KRUG 200655Z AUTO 02003KT 10SM CLR 10/08 A3018 RMK AO2

Čas: 02:07 (07:07 UTC)


TAF: chybějící

Stav a předpovědi počasí z více než 4 000 letišť (zprávy METAR a TAF).

Červené a žluté tečky na mapě představují dostupné meteorologické stanice.

Když kurzor umístíte na tečku, zobrazí se název stanice.

Pak kliknutím zobrazíte stav a předpověď počasí.

Chcete-li změnit mapu, kliknutím na zelené tlačítko se znaménkem +mapu přiblížíte, kliknutím na zelené tlačítko se znaménkem – mapu oddálíte a kliknutím na zelené šipky přejdete na sousední mapy.


METAR-TAF: